Time;durP1;ratioP1;P1;durP2;ratioP2;P2;SDS_P1;SDS_P2;PMS_P1;PMS_P2;Temp;Humidity;BMP_temperature;BMP_pressure;BME280_temperature;BME280_humidity;BME280_pressure;Samples;Min_cycle;Max_cycle;Signal;HPM_P1;HPM_P2
2023/06/02 00:01:02;;;;;;;13.98;3.88;;;10.10;99.90;;;;;;4988848;28;20038;-81
2023/06/02 00:03:30;;;;;;;13.52;3.33;;;10.10;99.90;;;;;;5006248;28;20038;-81
2023/06/02 00:05:59;;;;;;;8.90;2.90;;;10.10;99.90;;;;;;4981972;28;20045;-81
2023/06/02 00:08:25;;;;;;;9.57;2.50;;;10.10;99.90;;;;;;4982157;28;20073;-81
2023/06/02 00:10:51;;;;;;;16.92;3.35;;;10.10;99.90;;;;;;4965078;28;20038;-81
2023/06/02 00:13:17;;;;;;;6.88;2.72;;;10.00;99.90;;;;;;4979930;28;20076;-81
2023/06/02 00:15:43;;;;;;;10.50;3.40;;;10.00;99.90;;;;;;5007116;28;20045;-80
2023/06/02 00:18:09;;;;;;;19.48;3.35;;;10.00;99.90;;;;;;5023241;28;20037;-80
2023/06/02 00:20:35;;;;;;;8.38;3.00;;;10.10;99.90;;;;;;4983176;28;20034;-80
2023/06/02 00:23:01;;;;;;;15.50;3.35;;;10.00;99.90;;;;;;5003789;28;20065;-80
2023/06/02 00:25:31;;;;;;;11.30;3.63;;;10.00;99.90;;;;;;4987725;28;20045;-80
2023/06/02 00:27:56;;;;;;;10.70;2.90;;;10.00;99.90;;;;;;5008418;28;20049;-80
2023/06/02 00:30:22;;;;;;;16.95;3.85;;;10.00;99.90;;;;;;4978070;28;20037;-81
2023/06/02 00:32:48;;;;;;;12.88;3.75;;;10.10;99.90;;;;;;5004826;28;20152;-81
2023/06/02 00:35:14;;;;;;;10.32;3.40;;;10.00;99.90;;;;;;5000879;28;20026;-80
2023/06/02 00:37:39;;;;;;;13.80;3.40;;;10.00;99.90;;;;;;5001742;28;20546;-81
2023/06/02 00:40:06;;;;;;;10.68;3.08;;;10.00;99.90;;;;;;4998642;28;20095;-80
2023/06/02 00:42:32;;;;;;;11.10;3.25;;;10.00;99.90;;;;;;4985043;28;20041;-81
2023/06/02 00:44:58;;;;;;;13.43;3.08;;;10.00;99.90;;;;;;4977193;28;20854;-81
2023/06/02 00:47:24;;;;;;;12.65;3.22;;;10.00;99.90;;;;;;4999075;28;20045;-80
2023/06/02 00:49:50;;;;;;;12.32;3.80;;;10.00;99.90;;;;;;5008368;28;20054;-80
2023/06/02 00:52:17;;;;;;;16.05;3.47;;;9.90;99.90;;;;;;4971464;28;20109;-81
2023/06/02 00:54:43;;;;;;;11.35;3.17;;;9.90;99.90;;;;;;4999756;28;20049;-81
2023/06/02 00:57:09;;;;;;;12.60;3.90;;;9.90;99.90;;;;;;4957071;28;20033;-81
2023/06/02 00:59:37;;;;;;;10.68;3.78;;;9.90;99.90;;;;;;4993034;28;20034;-80
2023/06/02 01:02:03;;;;;;;10.93;3.03;;;9.90;99.90;;;;;;5003178;28;20041;-81
2023/06/02 01:04:30;;;;;;;10.73;3.25;;;9.90;99.90;;;;;;5009157;28;20042;-80
2023/06/02 01:07:00;;;;;;;16.85;3.40;;;9.90;99.90;;;;;;5000448;28;20495;-82
2023/06/02 01:09:27;;;;;;;12.95;3.72;;;9.80;99.90;;;;;;5007448;28;20044;-80
2023/06/02 01:11:53;;;;;;;15.63;3.45;;;9.80;99.90;;;;;;5011390;28;20147;-80
2023/06/02 01:14:19;;;;;;;11.60;3.47;;;9.80;99.90;;;;;;4991421;28;20110;-81
2023/06/02 01:16:49;;;;;;;16.85;3.30;;;9.80;99.90;;;;;;5005555;28;20199;-81
2023/06/02 01:19:20;;;;;;;15.57;4.03;;;9.80;99.90;;;;;;4991672;28;20038;-81
2023/06/02 01:21:57;;;;;;;13.73;4.20;;;9.70;99.90;;;;;;4978641;28;20519;-80
2023/06/02 01:24:29;;;;;;;11.65;3.50;;;9.70;99.90;;;;;;5005635;28;20175;-80
2023/06/02 01:26:55;;;;;;;14.13;3.45;;;9.70;99.90;;;;;;5007687;28;20527;-80
2023/06/02 01:29:21;;;;;;;15.38;3.25;;;9.70;99.90;;;;;;5003521;28;20396;-80
2023/06/02 01:31:52;;;;;;;10.63;3.47;;;9.70;99.90;;;;;;5005062;28;20084;-81
2023/06/02 01:34:32;;;;;;;12.30;3.63;;;9.70;99.90;;;;;;4994131;28;20167;-81
2023/06/02 01:37:00;;;;;;;9.07;3.70;;;9.70;99.90;;;;;;4984600;28;20451;-81
2023/06/02 01:39:28;;;;;;;13.30;3.15;;;9.60;99.90;;;;;;5008406;28;20038;-80
2023/06/02 01:41:54;;;;;;;9.95;3.45;;;9.60;99.90;;;;;;4991143;28;20041;-80
2023/06/02 01:44:22;;;;;;;13.25;3.15;;;9.60;99.90;;;;;;5009197;28;20042;-80
2023/06/02 01:46:48;;;;;;;12.27;3.75;;;9.60;99.90;;;;;;4984882;28;20072;-80
2023/06/02 01:49:15;;;;;;;9.13;3.67;;;9.60;99.90;;;;;;5020906;28;20049;-80
2023/06/02 01:51:42;;;;;;;12.48;3.17;;;9.60;99.90;;;;;;5012108;28;20049;-80
2023/06/02 01:54:07;;;;;;;15.95;3.80;;;9.50;99.90;;;;;;4973185;28;20033;-80
2023/06/02 01:56:33;;;;;;;14.10;3.65;;;9.50;99.90;;;;;;4972632;28;20490;-80
2023/06/02 01:59:00;;;;;;;11.05;2.85;;;9.60;99.90;;;;;;5023466;28;20125;-80
2023/06/02 02:01:27;;;;;;;10.68;3.20;;;9.60;99.90;;;;;;4990434;28;20176;-81
2023/06/02 02:03:53;;;;;;;16.30;3.20;;;9.50;99.90;;;;;;4972917;28;20537;-81
2023/06/02 02:06:29;;;;;;;10.88;3.40;;;9.60;99.90;;;;;;5000551;28;20044;-81
2023/06/02 02:08:56;;;;;;;13.80;3.40;;;9.60;99.90;;;;;;5017176;28;20529;-80
2023/06/02 02:11:22;;;;;;;10.50;3.15;;;9.60;99.90;;;;;;5002948;28;20487;-81
2023/06/02 02:13:48;;;;;;;12.98;3.92;;;9.50;99.90;;;;;;4998467;28;20098;-81
2023/06/02 02:16:14;;;;;;;11.95;3.35;;;9.60;99.90;;;;;;4999294;28;20037;-81
2023/06/02 02:18:40;;;;;;;13.98;4.40;;;9.60;99.90;;;;;;4972390;28;20030;-81
2023/06/02 02:21:06;;;;;;;15.88;3.92;;;9.60;99.90;;;;;;4957828;28;20038;-81
2023/06/02 02:23:32;;;;;;;13.70;3.92;;;9.60;99.90;;;;;;4974439;28;20096;-80
2023/06/02 02:25:57;;;;;;;14.02;3.50;;;9.60;99.90;;;;;;4972716;28;20045;-81
2023/06/02 02:28:23;;;;;;;14.05;3.30;;;9.60;99.90;;;;;;4988343;28;20034;-80
2023/06/02 02:30:49;;;;;;;12.98;3.38;;;9.60;99.90;;;;;;4998141;28;20033;-81
2023/06/02 02:33:15;;;;;;;15.15;3.17;;;9.60;99.90;;;;;;4993862;28;20495;-81
2023/06/02 02:35:41;;;;;;;10.88;3.38;;;9.70;99.90;;;;;;4965889;28;20044;-81
2023/06/02 02:38:07;;;;;;;19.77;3.83;;;9.60;99.90;;;;;;5003393;28;20553;-81
2023/06/02 02:40:32;;;;;;;13.55;3.38;;;9.60;99.90;;;;;;4999763;28;20033;-81
2023/06/02 02:42:58;;;;;;;13.10;2.90;;;9.70;99.90;;;;;;4963763;28;20053;-81
2023/06/02 02:45:24;;;;;;;11.93;3.45;;;9.60;99.90;;;;;;4997236;28;20038;-81
2023/06/02 02:47:50;;;;;;;14.52;3.30;;;9.70;99.90;;;;;;5006029;28;20368;-81
2023/06/02 02:50:16;;;;;;;15.68;2.97;;;9.70;99.90;;;;;;5003162;28;20049;-81
2023/06/02 02:52:41;;;;;;;16.40;3.60;;;9.70;99.90;;;;;;4988797;28;20053;-81
2023/06/02 02:55:07;;;;;;;16.88;4.45;;;9.70;99.90;;;;;;4971787;28;20763;-81
2023/06/02 02:57:33;;;;;;;17.33;3.92;;;9.70;99.90;;;;;;4971672;28;20038;-81
2023/06/02 02:59:59;;;;;;;13.73;3.53;;;9.60;99.90;;;;;;4939557;28;20395;-80
2023/06/02 03:02:24;;;;;;;13.43;3.85;;;9.70;99.90;;;;;;4980309;28;20046;-81
2023/06/02 03:04:51;;;;;;;16.40;3.90;;;9.70;99.90;;;;;;4953465;28;20046;-81
2023/06/02 03:07:18;;;;;;;17.92;3.13;;;9.70;99.90;;;;;;4981732;28;20050;-81
2023/06/02 03:09:43;;;;;;;12.18;3.38;;;9.70;99.90;;;;;;4978250;28;20038;-81
2023/06/02 03:12:09;;;;;;;18.05;4.13;;;9.70;99.90;;;;;;4998227;28;20373;-81
2023/06/02 03:14:35;;;;;;;15.30;3.25;;;9.70;99.90;;;;;;5003880;28;20053;-81
2023/06/02 03:17:02;;;;;;;13.32;3.13;;;9.80;99.90;;;;;;5009733;28;20378;-81
2023/06/02 03:19:28;;;;;;;12.32;3.67;;;9.70;99.90;;;;;;5000323;28;20743;-81
2023/06/02 03:21:56;;;;;;;10.85;3.30;;;9.70;99.90;;;;;;4997057;28;21017;-81
2023/06/02 03:24:21;;;;;;;15.65;3.50;;;9.70;99.90;;;;;;5034858;28;20445;-81
2023/06/02 03:26:51;;;;;;;15.95;3.33;;;9.70;99.90;;;;;;4989182;28;20041;-81
2023/06/02 03:29:17;;;;;;;16.55;3.08;;;9.80;99.90;;;;;;5020847;28;20060;-81
2023/06/02 03:31:43;;;;;;;14.00;3.50;;;9.80;99.90;;;;;;4972312;28;20046;-81
2023/06/02 03:34:09;;;;;;;14.00;2.92;;;9.80;99.90;;;;;;4998214;28;20037;-81
2023/06/02 03:36:35;;;;;;;14.38;3.33;;;9.80;99.90;;;;;;4991091;28;20414;-81
2023/06/02 03:39:05;;;;;;;17.70;3.30;;;9.80;99.90;;;;;;5010341;28;20034;-81
2023/06/02 03:41:31;;;;;;;12.82;3.15;;;9.80;99.90;;;;;;5016814;28;20028;-81
2023/06/02 03:43:57;;;;;;;11.88;3.25;;;9.80;99.90;;;;;;4996307;28;20038;-81
2023/06/02 03:46:23;;;;;;;15.30;2.75;;;9.80;99.90;;;;;;5005975;28;20037;-81
2023/06/02 03:48:49;;;;;;;13.20;3.70;;;9.80;99.90;;;;;;5020459;28;20478;-81
2023/06/02 03:51:15;;;;;;;15.18;3.72;;;9.80;99.90;;;;;;5008292;28;20633;-81
2023/06/02 03:53:40;;;;;;;17.13;3.60;;;9.90;99.90;;;;;;5003764;28;20126;-82
2023/06/02 03:56:06;;;;;;;14.32;3.00;;;9.90;99.90;;;;;;4993731;28;20065;-81
2023/06/02 03:58:32;;;;;;;16.23;3.35;;;9.90;99.90;;;;;;5005732;28;20041;-81
2023/06/02 04:00:58;;;;;;;14.30;3.90;;;9.90;99.90;;;;;;4999446;28;20120;-81
2023/06/02 04:03:24;;;;;;;13.73;3.20;;;9.90;99.90;;;;;;5019370;28;20037;-81
2023/06/02 04:05:49;;;;;;;14.93;3.60;;;9.90;99.90;;;;;;4995269;28;20395;-81
2023/06/02 04:08:16;;;;;;;15.32;3.03;;;9.90;99.90;;;;;;4995819;28;20094;-81
2023/06/02 04:10:45;;;;;;;7.05;2.92;;;10.00;99.90;;;;;;4991537;28;20049;-81
2023/06/02 04:13:11;;;;;;;16.65;3.45;;;10.00;99.90;;;;;;4972611;28;20057;-81
2023/06/02 04:15:37;;;;;;;14.98;3.08;;;10.00;99.90;;;;;;4974562;28;20053;-81
2023/06/02 04:18:03;;;;;;;12.93;2.80;;;10.00;99.90;;;;;;4991331;28;20042;-82
2023/06/02 04:20:29;;;;;;;16.17;3.63;;;10.00;99.90;;;;;;4993675;28;20034;-82
2023/06/02 04:22:55;;;;;;;15.48;3.40;;;10.00;99.90;;;;;;4954686;28;20524;-82
2023/06/02 04:25:20;;;;;;;13.73;2.85;;;10.00;99.90;;;;;;5009876;28;20041;-82
2023/06/02 04:27:46;;;;;;;13.18;2.95;;;10.00;99.90;;;;;;4984072;28;20537;-82
2023/06/02 04:30:12;;;;;;;12.13;3.20;;;10.10;99.90;;;;;;4974486;28;20065;-82
2023/06/02 04:32:38;;;;;;;13.25;2.78;;;10.10;99.90;;;;;;4975796;28;20380;-81
2023/06/02 04:35:04;;;;;;;15.38;3.28;;;10.10;99.90;;;;;;4957597;28;20388;-82
2023/06/02 04:37:29;;;;;;;16.02;3.97;;;10.10;99.90;;;;;;4987774;28;20038;-82
2023/06/02 04:39:55;;;;;;;16.88;3.47;;;10.20;99.90;;;;;;4969381;28;20603;-81
2023/06/02 04:42:21;;;;;;;15.73;3.20;;;10.20;99.90;;;;;;4989202;28;20041;-82
2023/06/02 04:44:48;;;;;;;16.13;3.40;;;10.20;99.90;;;;;;4989687;28;20073;-80
2023/06/02 04:47:14;;;;;;;17.35;3.53;;;10.30;99.90;;;;;;5002038;28;20175;-80
2023/06/02 04:49:40;;;;;;;14.02;3.10;;;10.30;99.90;;;;;;4982934;28;20047;-80
2023/06/02 04:52:09;;;;;;;17.88;3.95;;;10.30;99.90;;;;;;4972472;28;20150;-80
2023/06/02 04:54:38;;;;;;;12.55;3.10;;;10.40;99.90;;;;;;4990909;28;20054;-80
2023/06/02 04:57:07;;;;;;;12.80;3.30;;;10.40;99.90;;;;;;4976404;28;20034;-80
2023/06/02 04:59:33;;;;;;;12.25;2.92;;;10.40;99.90;;;;;;4990905;28;20038;-79
2023/06/02 05:02:00;;;;;;;11.90;2.92;;;10.40;99.90;;;;;;4997777;28;20034;-79
2023/06/02 05:04:26;;;;;;;19.55;3.67;;;10.50;99.90;;;;;;4989532;28;20073;-80
2023/06/02 05:06:52;;;;;;;12.48;3.10;;;10.50;99.90;;;;;;4976860;28;20045;-80
2023/06/02 05:09:18;;;;;;;15.65;4.55;;;10.50;99.90;;;;;;4953766;28;20656;-80
2023/06/02 05:11:44;;;;;;;17.90;3.50;;;10.60;99.90;;;;;;5005781;28;20188;-79
2023/06/02 05:14:10;;;;;;;20.17;3.97;;;10.60;99.90;;;;;;4975019;28;20065;-80
2023/06/02 05:16:36;;;;;;;13.52;2.83;;;10.60;99.90;;;;;;4977583;28;20034;-79
2023/06/02 05:19:05;;;;;;;10.18;2.80;;;10.60;99.90;;;;;;4984422;28;20030;-80
2023/06/02 05:21:31;;;;;;;15.00;3.58;;;10.70;99.90;;;;;;4981885;28;20034;-80
2023/06/02 05:23:58;;;;;;;19.08;3.08;;;10.70;99.90;;;;;;4977690;28;20042;-80
2023/06/02 05:26:24;;;;;;;17.60;4.38;;;10.70;99.90;;;;;;5005645;28;20034;-79
2023/06/02 05:28:50;;;;;;;15.55;3.28;;;10.80;99.90;;;;;;4992023;28;20130;-80
2023/06/02 05:31:16;;;;;;;17.30;3.20;;;10.80;99.90;;;;;;4981905;28;20034;-81
2023/06/02 05:33:42;;;;;;;13.02;3.60;;;10.80;99.90;;;;;;4971973;28;20041;-80
2023/06/02 05:36:08;;;;;;;16.70;3.67;;;10.80;99.90;;;;;;4987615;28;20038;-80
2023/06/02 05:38:34;;;;;;;12.65;3.38;;;10.90;99.90;;;;;;4976703;28;20108;-80
2023/06/02 05:41:00;;;;;;;18.17;4.07;;;10.90;99.90;;;;;;4966387;28;20077;-80
2023/06/02 05:43:26;;;;;;;17.05;3.75;;;10.90;99.90;;;;;;4978611;28;20076;-80
2023/06/02 05:45:52;;;;;;;11.68;3.78;;;11.00;99.90;;;;;;4964768;28;20100;-80
2023/06/02 05:48:17;;;;;;;14.10;3.83;;;11.00;99.90;;;;;;4969000;28;20042;-81
2023/06/02 05:50:43;;;;;;;25.30;4.00;;;11.00;99.90;;;;;;4952467;28;20045;-80
2023/06/02 05:53:09;;;;;;;11.40;3.75;;;11.00;99.90;;;;;;4983264;28;20045;-80
2023/06/02 05:55:36;;;;;;;20.23;4.60;;;11.10;99.90;;;;;;4970711;28;20041;-80
2023/06/02 05:58:02;;;;;;;10.35;3.47;;;11.10;99.90;;;;;;4988995;28;20042;-80
2023/06/02 06:00:28;;;;;;;16.88;4.57;;;11.10;99.90;;;;;;4999603;28;20488;-80
2023/06/02 06:02:54;;;;;;;11.65;3.58;;;11.10;99.90;;;;;;4988994;28;20040;-80
2023/06/02 06:05:19;;;;;;;13.85;3.45;;;11.10;99.90;;;;;;4955964;28;20049;-81
2023/06/02 06:07:45;;;;;;;13.80;3.80;;;11.20;99.90;;;;;;4973350;28;20049;-80
2023/06/02 06:10:11;;;;;;;13.48;3.70;;;11.20;99.90;;;;;;4973488;28;20052;-80
2023/06/02 06:12:37;;;;;;;12.95;4.18;;;11.20;99.90;;;;;;4973591;28;20068;-80
2023/06/02 06:15:02;;;;;;;17.25;4.22;;;11.30;99.90;;;;;;4980898;28;20514;-80
2023/06/02 06:17:28;;;;;;;17.05;4.05;;;11.30;99.90;;;;;;4999282;28;20666;-80
2023/06/02 06:19:54;;;;;;;12.98;3.53;;;11.40;99.90;;;;;;5008108;28;20037;-80
2023/06/02 06:22:19;;;;;;;18.63;4.10;;;11.40;99.90;;;;;;4999101;28;20074;-80
2023/06/02 06:24:45;;;;;;;16.80;3.60;;;11.40;99.90;;;;;;5004568;28;20136;-80
2023/06/02 06:27:11;;;;;;;16.77;4.78;;;11.50;99.90;;;;;;5008058;28;20049;-80
2023/06/02 06:29:37;;;;;;;21.70;5.38;;;11.50;99.90;;;;;;5009842;28;20111;-80
2023/06/02 06:32:05;;;;;;;18.25;4.82;;;11.50;99.90;;;;;;5007874;28;20101;-80
2023/06/02 06:34:31;;;;;;;20.10;4.82;;;11.60;99.90;;;;;;4987069;28;20652;-79
2023/06/02 06:36:57;;;;;;;18.88;4.50;;;11.60;99.90;;;;;;4986579;28;20034;-80
2023/06/02 06:39:23;;;;;;;15.52;3.67;;;11.60;99.90;;;;;;4978597;28;20468;-80
2023/06/02 06:41:48;;;;;;;13.75;3.83;;;11.70;99.90;;;;;;4992343;28;20414;-80
2023/06/02 06:44:14;;;;;;;13.70;4.65;;;11.70;99.90;;;;;;4987777;28;20034;-80
2023/06/02 06:46:40;;;;;;;18.75;3.78;;;11.80;99.90;;;;;;4978238;28;20115;-81
2023/06/02 06:49:06;;;;;;;13.38;4.40;;;11.90;99.90;;;;;;5007061;28;20041;-80
2023/06/02 06:51:32;;;;;;;21.95;4.50;;;12.00;99.90;;;;;;4958131;28;20489;-82
2023/06/02 06:53:58;;;;;;;20.65;5.70;;;12.00;99.90;;;;;;4978418;28;20045;-83
2023/06/02 06:56:25;;;;;;;19.60;5.30;;;12.00;99.90;;;;;;4994734;28;20045;-82
2023/06/02 06:58:51;;;;;;;26.15;6.47;;;12.10;99.90;;;;;;4972956;28;20121;-83
2023/06/02 07:01:17;;;;;;;15.55;5.15;;;12.20;99.90;;;;;;5009100;28;20493;-83
2023/06/02 07:03:43;;;;;;;26.52;5.35;;;12.20;99.90;;;;;;4965405;28;20175;-84
2023/06/02 07:06:09;;;;;;;22.30;4.60;;;12.30;99.90;;;;;;4999873;28;20040;-81
2023/06/02 07:08:38;;;;;;;10.15;4.05;;;12.30;99.90;;;;;;5013038;28;20064;-81
2023/06/02 07:11:03;;;;;;;14.48;4.85;;;12.40;99.90;;;;;;5033867;28;20124;-80
2023/06/02 07:13:30;;;;;;;21.25;5.47;;;12.40;99.90;;;;;;4974951;28;20184;-81
2023/06/02 07:15:55;;;;;;;18.55;4.45;;;12.40;99.90;;;;;;4989579;28;20433;-81
2023/06/02 07:18:21;;;;;;;21.48;6.13;;;12.60;99.90;;;;;;4988366;28;20121;-82
2023/06/02 07:20:47;;;;;;;16.98;4.88;;;12.60;99.90;;;;;;5008864;28;20042;-85
2023/06/02 07:23:12;;;;;;;20.33;5.57;;;12.60;99.90;;;;;;4993710;28;20029;-82
2023/06/02 07:25:38;;;;;;;26.55;6.63;;;12.70;99.90;;;;;;4972816;28;20038;-76
2023/06/02 07:28:04;;;;;;;20.40;5.95;;;12.80;99.90;;;;;;4992570;28;20124;-76
2023/06/02 07:30:31;;;;;;;19.92;5.07;;;12.80;99.90;;;;;;5006050;28;20100;-82
2023/06/02 07:32:57;;;;;;;22.67;5.30;;;12.80;99.90;;;;;;5020586;28;20037;-83
2023/06/02 07:35:23;;;;;;;24.23;7.30;;;12.80;99.90;;;;;;5006875;28;20399;-82
2023/06/02 07:37:53;;;;;;;21.38;5.45;;;12.80;99.90;;;;;;5026395;28;20042;-81
2023/06/02 07:40:19;;;;;;;17.17;4.63;;;12.80;99.90;;;;;;4979478;28;20762;-78
2023/06/02 07:42:46;;;;;;;25.17;5.85;;;12.90;99.90;;;;;;5027939;28;20042;-80
2023/06/02 07:45:12;;;;;;;19.70;5.55;;;13.00;99.90;;;;;;4992620;28;20049;-80
2023/06/02 07:47:37;;;;;;;21.38;5.90;;;13.00;99.90;;;;;;5007801;28;20042;-80
2023/06/02 07:50:03;;;;;;;25.30;6.57;;;13.10;99.90;;;;;;5023094;28;20411;-80
2023/06/02 07:52:29;;;;;;;19.75;6.38;;;13.20;99.90;;;;;;5010209;28;20054;-80
2023/06/02 07:54:55;;;;;;;16.83;5.60;;;13.30;99.90;;;;;;5011814;28;20080;-80
2023/06/02 07:57:21;;;;;;;26.42;6.93;;;13.40;99.90;;;;;;4979763;28;20034;-80
2023/06/02 07:59:48;;;;;;;22.63;5.90;;;13.50;99.90;;;;;;5012367;28;20034;-79
2023/06/02 08:02:13;;;;;;;25.35;6.78;;;13.60;99.90;;;;;;5010955;28;20557;-81
2023/06/02 08:04:39;;;;;;;18.55;5.88;;;13.90;99.90;;;;;;4993809;28;20124;-80
2023/06/02 08:07:05;;;;;;;18.00;6.15;;;14.20;99.90;;;;;;4989474;28;20107;-80
2023/06/02 08:09:31;;;;;;;22.40;5.50;;;14.20;99.90;;;;;;4990175;28;20050;-80
2023/06/02 08:11:57;;;;;;;22.92;5.50;;;14.20;99.90;;;;;;5006418;28;20157;-79
2023/06/02 08:14:22;;;;;;;29.45;7.35;;;14.30;99.90;;;;;;5028182;28;20507;-80
2023/06/02 08:16:50;;;;;;;19.13;5.57;;;14.60;99.90;;;;;;5000821;28;20041;-80
2023/06/02 08:19:17;;;;;;;22.40;5.80;;;14.90;99.90;;;;;;4994477;28;20049;-80
2023/06/02 08:21:43;;;;;;;17.27;5.38;;;15.10;99.90;;;;;;5011107;28;20082;-80
2023/06/02 08:24:09;;;;;;;25.02;6.10;;;15.40;99.90;;;;;;5019080;28;20070;-80
2023/06/02 08:26:39;;;;;;;22.33;6.13;;;15.50;99.90;;;;;;5025608;28;20096;-80
2023/06/02 08:29:08;;;;;;;17.25;5.70;;;15.70;99.90;;;;;;4995741;28;20042;-80
2023/06/02 08:31:35;;;;;;;16.23;5.25;;;16.00;99.90;;;;;;4995277;28;20069;-80
2023/06/02 08:34:06;;;;;;;22.48;6.43;;;16.00;99.90;;;;;;5027464;28;20879;-80
2023/06/02 08:36:35;;;;;;;16.35;5.88;;;16.10;99.90;;;;;;4995783;28;20034;-80
2023/06/02 08:39:06;;;;;;;19.85;5.15;;;16.00;99.90;;;;;;5011185;28;21266;-80
2023/06/02 08:41:39;;;;;;;22.00;5.63;;;15.90;99.90;;;;;;4995495;28;20088;-80
2023/06/02 08:44:05;;;;;;;19.70;5.35;;;15.80;99.90;;;;;;5011200;28;20137;-80
2023/06/02 08:46:31;;;;;;;20.35;5.55;;;16.00;99.90;;;;;;4994822;28;20125;-80
2023/06/02 08:48:58;;;;;;;14.20;4.28;;;16.30;99.90;;;;;;4979092;28;20333;-80
2023/06/02 08:51:24;;;;;;;12.80;5.05;;;16.50;99.90;;;;;;4993627;28;20053;-80
2023/06/02 08:53:50;;;;;;;12.32;4.55;;;16.80;99.90;;;;;;4994821;28;20041;-80
2023/06/02 08:56:16;;;;;;;13.35;4.97;;;16.90;99.90;;;;;;4978831;28;20038;-80
2023/06/02 08:58:46;;;;;;;15.18;4.43;;;17.10;99.90;;;;;;5026910;28;20073;-80
2023/06/02 09:01:12;;;;;;;12.05;4.47;;;17.30;99.90;;;;;;4994760;28;20034;-80
2023/06/02 09:03:37;;;;;;;21.83;4.70;;;17.50;99.90;;;;;;4962820;28;20038;-80
2023/06/02 09:06:18;;;;;;;13.77;4.30;;;17.60;99.90;;;;;;5010657;28;20045;-81
2023/06/02 09:08:53;;;;;;;18.10;4.40;;;17.80;99.90;;;;;;5011156;28;20038;-80
2023/06/02 09:11:19;;;;;;;11.35;3.65;;;18.00;99.90;;;;;;5011026;28;20120;-80
2023/06/02 09:13:45;;;;;;;15.75;4.25;;;18.10;99.90;;;;;;5009248;28;20547;-80
2023/06/02 09:16:11;;;;;;;16.25;3.80;;;18.30;99.90;;;;;;5010997;28;20080;-80
2023/06/02 09:18:36;;;;;;;9.85;4.00;;;18.50;99.90;;;;;;5010033;28;20073;-80
2023/06/02 09:21:02;;;;;;;15.93;4.32;;;18.60;99.90;;;;;;4994533;28;20042;-81
2023/06/02 09:23:45;;;;;;;15.52;4.00;;;18.60;99.90;;;;;;5010136;28;20041;-81
2023/06/02 09:26:23;;;;;;;16.05;3.72;;;18.80;99.90;;;;;;4969015;28;20049;-81
2023/06/02 09:29:12;;;;;;;13.02;3.50;;;19.10;99.90;;;;;;4993701;28;20096;-81
2023/06/02 09:31:52;;;;;;;11.85;3.75;;;19.20;99.90;;;;;;5009504;28;20029;-81
2023/06/02 09:34:20;;;;;;;14.30;4.28;;;19.30;99.90;;;;;;4994503;28;20088;-81
2023/06/02 09:36:51;;;;;;;11.13;3.47;;;19.40;99.90;;;;;;5010239;28;20046;-81
2023/06/02 09:39:33;;;;;;;9.93;3.47;;;19.60;99.90;;;;;;4993840;28;20033;-81
2023/06/02 09:42:00;;;;;;;13.63;3.53;;;19.50;99.80;;;;;;5007866;28;20491;-81
2023/06/02 09:44:26;;;;;;;9.77;3.25;;;19.70;99.90;;;;;;5010607;28;20054;-82
2023/06/02 09:46:52;;;;;;;16.17;3.75;;;19.70;99.20;;;;;;4994240;28;20124;-81
2023/06/02 09:49:18;;;;;;;15.25;3.50;;;19.80;99.30;;;;;;5026037;28;20664;-81
2023/06/02 09:51:44;;;;;;;13.07;3.88;;;19.90;98.90;;;;;;5010329;28;20048;-81
2023/06/02 09:54:11;;;;;;;13.50;4.55;;;19.80;99.20;;;;;;5009708;28;20038;-81
2023/06/02 09:56:38;;;;;;;28.05;4.68;;;19.50;98.40;;;;;;4993829;28;20430;-81
2023/06/02 09:59:05;;;;;;;13.30;4.25;;;19.50;99.00;;;;;;5009434;28;20065;-81
2023/06/02 10:01:32;;;;;;;8.70;3.17;;;19.70;98.50;;;;;;4994186;28;20121;-81
2023/06/02 10:03:58;;;;;;;11.57;3.35;;;20.10;99.20;;;;;;5010443;28;20521;-80
2023/06/02 10:06:33;;;;;;;8.93;2.95;;;20.40;98.80;;;;;;4992433;28;20068;-80
2023/06/02 10:09:17;;;;;;;12.60;3.10;;;20.40;97.60;;;;;;4996276;28;20058;-82
2023/06/02 10:12:11;;;;;;;11.73;3.50;;;20.10;96.90;;;;;;5008351;28;20095;-81
2023/06/02 10:15:00;;;;;;;7.80;3.10;;;19.90;97.60;;;;;;5008137;28;20097;-81
2023/06/02 10:17:43;;;;;;;9.98;2.88;;;19.80;98.20;;;;;;5007054;28;20037;-81
2023/06/02 10:20:29;;;;;;;9.30;3.00;;;19.60;97.40;;;;;;5004568;28;20128;-79
2023/06/02 10:23:33;;;;;;;15.27;4.25;;;19.40;97.40;;;;;;4989322;28;20419;-81
2023/06/02 10:26:23;;;;;;;11.88;2.85;;;19.20;97.50;;;;;;5021961;28;20553;-81
2023/06/02 10:28:52;;;;;;;14.30;3.65;;;19.00;97.70;;;;;;5026165;28;20038;-80
2023/06/02 10:31:31;;;;;;;22.67;4.05;;;18.90;98.30;;;;;;4974563;28;20052;-81
2023/06/02 10:33:59;;;;;;;11.73;2.90;;;19.00;97.90;;;;;;4990496;28;20129;-79
2023/06/02 10:36:25;;;;;;;7.88;2.90;;;19.10;98.10;;;;;;4973124;28;20569;-77
2023/06/02 10:38:52;;;;;;;12.57;2.95;;;19.20;98.30;;;;;;4989764;28;20042;-76
2023/06/02 10:41:21;;;;;;;11.23;2.83;;;19.10;98.10;;;;;;4988893;28;20042;-75
2023/06/02 10:44:20;;;;;;;9.68;3.20;;;19.10;98.00;;;;;;5025308;28;20503;-78
2023/06/02 10:46:45;;;;;;;19.08;2.60;;;19.50;97.90;;;;;;4991021;28;20829;-76
2023/06/02 10:49:50;;;;;;;13.90;2.72;;;20.00;98.10;;;;;;5007476;28;20113;-80
2023/06/02 10:52:16;;;;;;;9.85;3.10;;;20.20;96.60;;;;;;4996283;28;20048;-78
2023/06/02 10:54:42;;;;;;;6.22;2.15;;;20.10;97.00;;;;;;4975181;28;20049;-79
2023/06/02 10:57:09;;;;;;;9.00;2.78;;;20.20;97.20;;;;;;4991277;28;20038;-77
2023/06/02 10:59:36;;;;;;;5.97;2.10;;;20.30;96.70;;;;;;5005437;28;20050;-80
2023/06/02 11:02:03;;;;;;;5.18;2.40;;;20.40;96.30;;;;;;4972465;28;20030;-79
2023/06/02 11:04:28;;;;;;;6.75;2.22;;;20.70;95.60;;;;;;5009015;28;20038;-81
2023/06/02 11:07:26;;;;;;;6.72;2.22;;;21.00;95.80;;;;;;4991405;28;20037;-81
2023/06/02 11:09:59;;;;;;;4.85;2.00;;;21.30;95.70;;;;;;5000389;28;20034;-78
2023/06/02 11:12:50;;;;;;;8.30;2.10;;;21.60;94.70;;;;;;4973258;28;20038;-79
2023/06/02 11:15:17;;;;;;;4.70;2.20;;;21.60;94.60;;;;;;5028362;28;20060;-78
2023/06/02 11:17:44;;;;;;;51.45;6.82;;;21.70;94.80;;;;;;4992566;28;20038;-78
2023/06/02 11:20:10;;;;;;;4.13;1.98;;;21.70;94.20;;;;;;5006817;28;20045;-80
2023/06/02 11:22:36;;;;;;;4.85;2.30;;;21.60;93.80;;;;;;4976885;28;20095;-78
2023/06/02 11:25:03;;;;;;;5.07;2.22;;;21.70;94.10;;;;;;4973186;28;20038;-78
2023/06/02 11:27:40;;;;;;;9.13;2.30;;;21.80;93.30;;;;;;5002672;28;20096;-78
2023/06/02 11:30:09;;;;;;;6.47;2.13;;;21.40;92.40;;;;;;5005849;28;20100;-78
2023/06/02 11:32:35;;;;;;;7.82;2.08;;;21.10;93.10;;;;;;4989530;28;20188;-78
2023/06/02 11:35:07;;;;;;;4.93;1.90;;;20.90;93.20;;;;;;5007707;28;20108;-77
2023/06/02 11:37:34;;;;;;;10.13;2.15;;;20.80;93.30;;;;;;4990453;28;20601;-77
2023/06/02 11:39:59;;;;;;;6.15;2.20;;;20.90;93.20;;;;;;4988912;28;20958;-78
2023/06/02 11:42:40;;;;;;;16.05;3.13;;;21.10;93.00;;;;;;5007268;28;20034;-78
2023/06/02 11:45:18;;;;;;;4.30;1.90;;;21.20;92.60;;;;;;4981770;28;20041;-77
2023/06/02 11:47:45;;;;;;;4.28;2.33;;;21.40;92.90;;;;;;4991373;28;20100;-78
2023/06/02 11:50:16;;;;;;;5.95;2.20;;;21.70;93.00;;;;;;5010655;28;20038;-79
2023/06/02 11:52:41;;;;;;;3.53;1.65;;;22.00;92.30;;;;;;4990322;28;20084;-81
2023/06/02 11:55:08;;;;;;;7.22;2.45;;;21.90;91.50;;;;;;4989621;28;20066;-79
2023/06/02 11:57:34;;;;;;;4.68;1.75;;;21.40;90.90;;;;;;4987289;28;20033;-82
2023/06/02 12:00:09;;;;;;;6.97;1.85;;;21.20;91.00;;;;;;4973357;28;20034;-81
2023/06/02 12:02:36;;;;;;;5.97;2.00;;;21.30;91.20;;;;;;4986058;28;20133;-80
2023/06/02 12:05:02;;;;;;;4.13;1.67;;;21.60;91.40;;;;;;5005446;28;20202;-80
2023/06/02 12:07:29;;;;;;;3.42;1.83;;;22.00;91.80;;;;;;4989088;28;20045;-83
2023/06/02 12:09:55;;;;;;;5.20;1.77;;;22.30;91.10;;;;;;4986711;28;20044;-84
2023/06/02 12:12:21;;;;;;;5.28;2.08;;;22.30;90.30;;;;;;4987119;28;20100;-80
2023/06/02 12:14:47;;;;;;;4.07;1.95;;;22.30;89.80;;;;;;4985049;28;20311;-79
2023/06/02 12:17:12;;;;;;;4.75;1.80;;;22.40;89.70;;;;;;4966026;28;20046;-77
2023/06/02 12:19:38;;;;;;;2.63;1.90;;;22.30;88.70;;;;;;4977575;28;20181;-80
2023/06/02 12:22:14;;;;;;;5.18;1.90;;;22.40;88.90;;;;;;4977077;28;20037;-80
2023/06/02 12:24:41;;;;;;;2.55;1.48;;;22.60;87.70;;;;;;5011722;28;20088;-80
2023/06/02 12:27:07;;;;;;;6.03;1.77;;;22.60;86.60;;;;;;5012497;28;20037;-80
2023/06/02 12:29:36;;;;;;;3.80;1.67;;;22.90;86.50;;;;;;4977105;28;20034;-80
2023/06/02 12:32:06;;;;;;;4.80;1.90;;;22.90;85.60;;;;;;4993962;28;20033;-79
2023/06/02 12:34:32;;;;;;;2.65;1.83;;;23.00;84.30;;;;;;5009957;28;20056;-79
2023/06/02 12:36:58;;;;;;;5.80;2.28;;;23.10;85.00;;;;;;4962853;28;20523;-79
2023/06/02 12:39:24;;;;;;;3.45;1.80;;;23.00;82.40;;;;;;5028340;28;20393;-80
2023/06/02 12:41:50;;;;;;;3.33;1.70;;;22.80;82.50;;;;;;4994385;28;20056;-80
2023/06/02 12:44:17;;;;;;;6.25;1.67;;;22.80;82.50;;;;;;4988783;28;20049;-77